In Rescue
 
Open Full Screen Window  High Contrast Mode
Wind Gusting 00 knots
03
May 13, 2021 10:39 AM EDT
Weather Information
Wind Direction
  010 °
Wind Speed
  03 kt (3 mph)
Wind Gust
  00 kt (0 mph)
Altimeter
30.22 in
Visibility
10 SM
Temperature
15° C
59° F
Dewpoint
00° C
32° F
Humidity
36%
1hr Rain Fall
00.00 in.
24hr Rain Fall
00.00 in.
Sky Condition
Clear
VFR

METAR K6B0 131439Z AUTO 01003KT 10SM CLR 15/00 A3022 RMK AO2 T01480003

FAA Disclaimer: The data displayed is for advisory purposes only and is not to be used for flight planning or operations.